Terminal Aerodrome Forecast
Issued by NWS

Home | Current Version | Previous Version | Graphics & Text | Print | Product List | Glossary On
Versions: 1 2 3 4 5 6 7 8 9 10 11 12 13 14 15 16 17 18 19
756
FTUS43 KMPX 241745
TAFAXN
TAF
KAXN 241745Z 2418/2518 14015G25KT 6SM BR OVC006
     FM241900 14016G25KT P6SM BKN012
     FM250000 15013KT 6SM -SHRA VCTS SCT015CB OVC025
      TEMPO 2501/2505 4SM TSRA BR OVC015CB
     FM250600 18010KT P6SM FEW050
     FM251500 25014G22KT P6SM OVC020=

USA.gov is the U.S. government's official web portal to all federal, state and local government web resources and services.